createdAt,value
2023-05-08T00:00:13.956Z,3.90
2023-05-08T00:02:41.143Z,3.95
2023-05-08T00:05:09.359Z,3.67
2023-05-08T00:07:36.424Z,3.92
2023-05-08T00:10:03.341Z,3.92
2023-05-08T00:12:30.244Z,3.35
2023-05-08T00:14:56.932Z,3.60
2023-05-08T00:17:23.624Z,4.32
2023-05-08T00:19:50.582Z,4.43
2023-05-08T00:22:18.840Z,3.67
2023-05-08T00:24:45.650Z,3.95
2023-05-08T00:27:12.289Z,4.10
2023-05-08T00:29:39.366Z,3.75
2023-05-08T00:32:06.171Z,4.07
2023-05-08T00:34:32.962Z,3.53
2023-05-08T00:36:59.716Z,4.63
2023-05-08T00:39:27.801Z,4.55
2023-05-08T00:41:54.405Z,3.83
2023-05-08T00:44:21.060Z,4.32
2023-05-08T00:46:48.277Z,4.00
2023-05-08T00:49:15.957Z,3.85
2023-05-08T00:51:45.201Z,4.32
2023-05-08T00:54:12.301Z,4.40
2023-05-08T00:56:40.778Z,4.00
2023-05-08T00:59:11.463Z,3.63
2023-05-08T01:01:38.844Z,4.05
2023-05-08T01:04:05.815Z,4.07
2023-05-08T01:06:33.281Z,4.05
2023-05-08T01:09:00.552Z,3.83
2023-05-08T01:11:31.310Z,4.05
2023-05-08T01:14:07.566Z,4.50
2023-05-08T01:16:41.799Z,3.78
2023-05-08T01:19:27.534Z,4.22
2023-05-08T01:21:58.496Z,4.18
2023-05-08T01:24:54.020Z,4.00
2023-05-08T01:27:48.729Z,4.20
2023-05-08T01:31:00.991Z,3.97
2023-05-08T01:33:35.190Z,4.10
2023-05-08T01:36:11.619Z,4.70
2023-05-08T01:38:47.117Z,4.47
2023-05-08T01:41:16.927Z,4.57
2023-05-08T01:43:52.880Z,4.38
2023-05-08T01:46:23.929Z,4.63
2023-05-08T01:48:59.374Z,5.03
2023-05-08T01:51:28.657Z,4.50
2023-05-08T01:53:58.878Z,4.90
2023-05-08T01:56:28.440Z,4.80
2023-05-08T01:58:57.880Z,5.25
2023-05-08T02:01:26.614Z,4.88
2023-05-08T02:03:57.331Z,5.22
2023-05-08T02:06:26.891Z,4.80
2023-05-08T02:08:54.742Z,4.53
2023-05-08T02:11:24.272Z,5.45
2023-05-08T02:13:51.470Z,4.53
2023-05-08T02:16:20.546Z,4.95
2023-05-08T02:18:51.016Z,5.43
2023-05-08T02:21:20.631Z,4.90
2023-05-08T02:23:48.303Z,5.50
2023-05-08T02:26:16.139Z,5.25
2023-05-08T02:28:43.903Z,5.53
2023-05-08T02:31:12.091Z,4.80
2023-05-08T02:33:41.797Z,5.75
2023-05-08T02:36:10.818Z,5.05
2023-05-08T02:38:41.399Z,5.28
2023-05-08T02:41:08.901Z,5.28
2023-05-08T02:43:35.721Z,5.63
2023-05-08T02:46:11.095Z,5.82
2023-05-08T02:48:44.312Z,5.53
2023-05-08T02:51:20.728Z,5.70
2023-05-08T02:53:54.486Z,6.40
2023-05-08T02:56:31.083Z,6.13
2023-05-08T02:59:04.436Z,6.13
2023-05-08T03:04:04.387Z,5.65
2023-05-08T03:06:37.064Z,6.20
2023-05-08T03:09:06.694Z,5.38
2023-05-08T03:11:40.574Z,5.25
2023-05-08T03:14:11.129Z,5.50
2023-05-08T03:16:41.588Z,5.32
2023-05-08T03:19:15.903Z,5.00
2023-05-08T03:21:44.697Z,5.45
2023-05-08T03:24:17.412Z,6.10
2023-05-08T03:26:45.044Z,6.53
2023-05-08T03:29:13.743Z,5.47
2023-05-08T03:31:42.550Z,5.55
2023-05-08T03:34:12.210Z,5.95
2023-05-08T03:36:39.502Z,6.35
2023-05-08T03:39:06.407Z,5.88
2023-05-08T03:41:34.781Z,6.05
2023-05-08T03:44:03.587Z,5.85
2023-05-08T03:46:31.548Z,6.07
2023-05-08T03:48:59.914Z,6.30
2023-05-08T03:51:27.015Z,5.90
2023-05-08T03:53:53.602Z,6.07
2023-05-08T03:56:20.343Z,6.30
2023-05-08T03:58:54.628Z,5.95
2023-05-08T04:01:25.824Z,5.55
2023-05-08T04:04:00.808Z,6.05
2023-05-08T04:06:35.665Z,5.72
2023-05-08T04:09:17.184Z,5.35
2023-05-08T04:11:52.233Z,5.13
2023-05-08T04:14:23.227Z,4.85
2023-05-08T04:16:52.175Z,5.25
2023-05-08T04:19:23.335Z,4.78
2023-05-08T04:21:51.183Z,4.65
2023-05-08T04:24:19.795Z,4.72
2023-05-08T04:26:46.816Z,5.00
2023-05-08T04:29:14.114Z,4.80
2023-05-08T04:31:42.419Z,4.85
2023-05-08T04:34:09.516Z,4.25
2023-05-08T04:36:36.257Z,4.18
2023-05-08T04:39:02.949Z,4.22
2023-05-08T04:41:29.764Z,4.05
2023-05-08T04:43:56.996Z,4.10
2023-05-08T04:46:23.660Z,3.80
2023-05-08T04:48:51.682Z,3.67
2023-05-08T04:51:18.372Z,4.28
2023-05-08T04:53:45.652Z,4.45
2023-05-08T04:56:12.432Z,4.10
2023-05-08T04:58:39.032Z,4.88
2023-05-08T05:01:05.985Z,4.07
2023-05-08T05:03:32.744Z,4.53
2023-05-08T05:06:01.499Z,4.30
2023-05-08T05:08:28.487Z,4.15
2023-05-08T05:10:55.140Z,4.05
2023-05-08T05:13:21.955Z,4.22
2023-05-08T05:15:48.613Z,4.65
2023-05-08T05:18:15.212Z,4.25
2023-05-08T05:20:41.887Z,4.30
2023-05-08T05:23:09.908Z,4.10
2023-05-08T05:25:36.539Z,4.55
2023-05-08T05:28:03.376Z,3.97
2023-05-08T05:30:30.114Z,4.00
2023-05-08T05:32:57.055Z,3.88
2023-05-08T05:35:25.466Z,4.25
2023-05-08T05:37:52.434Z,3.85
2023-05-08T05:40:20.455Z,4.07
2023-05-08T05:42:49.443Z,4.10
2023-05-08T05:45:16.394Z,3.97
2023-05-08T05:47:45.343Z,3.72
2023-05-08T05:50:12.394Z,4.00
2023-05-08T05:52:39.193Z,4.10
2023-05-08T05:55:06.458Z,3.90
2023-05-08T05:57:34.472Z,3.85
2023-05-08T06:00:01.105Z,3.60
2023-05-08T06:02:27.742Z,2.92
2023-05-08T06:04:54.450Z,3.88
2023-05-08T06:07:21.355Z,4.25
2023-05-08T06:09:48.144Z,2.83
2023-05-08T06:12:14.774Z,3.20
2023-05-08T06:14:42.776Z,3.10
2023-05-08T06:17:09.678Z,2.70
2023-05-08T06:19:36.503Z,3.47
2023-05-08T06:22:03.265Z,2.97
2023-05-08T06:24:29.899Z,2.88
2023-05-08T06:26:56.556Z,2.50
2023-05-08T06:29:23.135Z,2.85
2023-05-08T06:31:51.217Z,2.88
2023-05-08T06:34:18.032Z,2.50
2023-05-08T06:36:44.853Z,2.33
2023-05-08T06:39:11.934Z,2.60
2023-05-08T06:41:38.636Z,2.38
2023-05-08T06:44:05.404Z,2.50
2023-05-08T06:46:32.142Z,2.15
2023-05-08T06:49:00.322Z,2.70
2023-05-08T06:51:26.932Z,2.38
2023-05-08T06:53:53.774Z,1.90
2023-05-08T06:56:20.562Z,2.15
2023-05-08T06:58:56.976Z,2.10
2023-05-08T07:01:27.863Z,2.10
2023-05-08T07:03:54.718Z,2.08
2023-05-08T07:06:22.783Z,2.10
2023-05-08T07:08:49.803Z,2.42
2023-05-08T07:11:16.551Z,1.83
2023-05-08T07:13:43.239Z,2.00
2023-05-08T07:16:10.031Z,2.05
2023-05-08T07:18:36.658Z,2.15
2023-05-08T07:21:03.545Z,1.77
2023-05-08T07:23:31.685Z,1.88
2023-05-08T07:25:58.852Z,2.17
2023-05-08T07:28:25.789Z,2.53
2023-05-08T07:30:52.475Z,2.17
2023-05-08T07:33:19.165Z,2.10
2023-05-08T07:35:46.266Z,2.20
2023-05-08T07:38:13.210Z,2.08
2023-05-08T07:40:41.447Z,2.63
2023-05-08T07:43:08.036Z,1.90
2023-05-08T07:45:35.772Z,2.08
2023-05-08T07:48:02.425Z,2.20
2023-05-08T07:50:29.394Z,2.38
2023-05-08T07:52:56.069Z,2.33
2023-05-08T07:55:22.735Z,1.90
2023-05-08T07:57:50.692Z,2.60
2023-05-08T08:00:17.945Z,2.13
2023-05-08T08:02:45.426Z,2.10
2023-05-08T08:05:12.945Z,1.98
2023-05-08T08:07:39.927Z,2.20
2023-05-08T08:10:08.043Z,2.00
2023-05-08T08:12:35.094Z,1.90
2023-05-08T08:15:03.495Z,2.05
2023-05-08T08:17:30.229Z,1.92
2023-05-08T08:19:57.038Z,2.28
2023-05-08T08:22:23.835Z,2.33
2023-05-08T08:24:51.855Z,2.50
2023-05-08T08:27:19.955Z,1.95
2023-05-08T08:29:46.614Z,2.10
2023-05-08T08:32:14.631Z,2.00
2023-05-08T08:34:41.268Z,2.13
2023-05-08T08:37:07.948Z,2.20
2023-05-08T08:39:34.851Z,2.08
2023-05-08T08:42:01.836Z,2.00
2023-05-08T08:44:28.570Z,2.08
2023-05-08T08:46:57.957Z,2.10
2023-05-08T08:49:30.732Z,2.20
2023-05-08T08:52:01.568Z,2.08
2023-05-08T08:54:29.984Z,2.05
2023-05-08T08:57:00.555Z,2.22
2023-05-08T08:59:28.545Z,2.20
2023-05-08T09:01:58.678Z,2.10
2023-05-08T09:04:26.969Z,1.90
2023-05-08T09:06:53.821Z,2.00
2023-05-08T09:09:21.109Z,1.83
2023-05-08T09:11:48.316Z,1.60
2023-05-08T09:14:15.150Z,1.58
2023-05-08T09:16:42.255Z,2.58
2023-05-08T09:19:09.886Z,2.70
2023-05-08T09:21:38.133Z,1.98
2023-05-08T09:24:05.953Z,2.03
2023-05-08T09:26:34.546Z,2.10
2023-05-08T09:29:11.960Z,1.90
2023-05-08T09:31:40.263Z,1.85
2023-05-08T09:34:08.015Z,1.88
2023-05-08T09:36:34.973Z,1.85
2023-05-08T09:39:03.424Z,1.67
2023-05-08T09:41:30.301Z,2.28
2023-05-08T09:44:02.198Z,2.03
2023-05-08T09:46:29.613Z,1.92
2023-05-08T09:48:58.671Z,2.20
2023-05-08T09:51:26.952Z,2.65
2023-05-08T09:53:57.267Z,1.92
2023-05-08T09:56:36.371Z,1.90
2023-05-08T09:59:04.990Z,2.05
2023-05-08T10:01:33.270Z,1.65
2023-05-08T10:04:00.568Z,2.22
2023-05-08T10:06:28.401Z,1.90
2023-05-08T10:09:11.199Z,1.83
2023-05-08T10:11:40.122Z,2.00
2023-05-08T10:14:06.920Z,2.30
2023-05-08T10:16:42.076Z,1.90
2023-05-08T10:19:13.580Z,2.50
2023-05-08T10:21:42.974Z,2.10
2023-05-08T10:24:14.438Z,2.00
2023-05-08T10:26:53.818Z,2.20
2023-05-08T10:29:34.183Z,2.42
2023-05-08T10:32:03.783Z,1.77
2023-05-08T10:34:33.235Z,1.80
2023-05-08T10:37:00.200Z,1.90
2023-05-08T10:39:28.805Z,1.75
2023-05-08T10:41:57.741Z,1.73
2023-05-08T10:44:26.907Z,1.70
2023-05-08T10:47:01.400Z,1.90
2023-05-08T10:49:35.324Z,1.70
2023-05-08T10:52:16.295Z,1.38
2023-05-08T10:55:08.659Z,2.20
2023-05-08T10:57:36.886Z,2.13
2023-05-08T11:00:04.417Z,1.90
2023-05-08T11:02:31.511Z,1.25
2023-05-08T11:05:18.456Z,1.63
2023-05-08T11:07:55.315Z,1.75
2023-05-08T11:10:22.552Z,1.73
2023-05-08T11:12:51.650Z,1.85
2023-05-08T11:15:35.661Z,1.65
2023-05-08T11:18:04.216Z,1.85
2023-05-08T11:20:39.081Z,1.48
2023-05-08T11:23:23.246Z,1.60
2023-05-08T11:25:59.146Z,1.67
2023-05-08T11:28:27.594Z,1.65
2023-05-08T11:30:55.080Z,1.70
2023-05-08T11:33:22.963Z,2.13
2023-05-08T11:35:54.843Z,1.77
2023-05-08T11:38:25.125Z,2.08
2023-05-08T11:40:56.278Z,1.60
2023-05-08T11:43:46.532Z,1.70
2023-05-08T11:46:15.621Z,1.65
2023-05-08T11:48:42.552Z,1.60
2023-05-08T11:51:09.468Z,1.55
2023-05-08T11:53:37.288Z,1.60
2023-05-08T11:56:04.627Z,1.33
2023-05-08T11:58:32.704Z,1.60
2023-05-08T12:00:59.380Z,1.67
2023-05-08T12:03:26.238Z,1.70
2023-05-08T12:05:56.741Z,1.52
2023-05-08T12:08:23.839Z,1.90
2023-05-08T12:10:51.524Z,1.63
2023-05-08T12:13:20.387Z,1.77
2023-05-08T12:15:51.531Z,1.63
2023-05-08T12:18:18.138Z,1.65
2023-05-08T12:20:45.090Z,2.03
2023-05-08T12:23:12.157Z,1.58
2023-05-08T12:25:39.896Z,1.60
2023-05-08T12:28:07.242Z,1.60
2023-05-08T12:30:34.303Z,1.83
2023-05-08T12:33:03.064Z,1.38
2023-05-08T12:35:30.319Z,1.50
2023-05-08T12:38:01.294Z,1.52
2023-05-08T12:40:29.670Z,1.80
2023-05-08T12:42:56.346Z,1.45
2023-05-08T12:45:25.276Z,1.67
2023-05-08T12:47:53.443Z,1.60
2023-05-08T12:50:22.208Z,1.85
2023-05-08T12:52:51.387Z,1.60
2023-05-08T12:55:23.267Z,1.40
2023-05-08T12:57:50.272Z,1.85
2023-05-08T13:00:17.831Z,1.80
2023-05-08T13:02:53.985Z,1.42
2023-05-08T13:05:23.425Z,1.40
2023-05-08T13:07:50.630Z,1.50
2023-05-08T13:10:19.262Z,1.42
2023-05-08T13:12:47.381Z,1.50
2023-05-08T13:15:14.096Z,1.65
2023-05-08T13:17:40.993Z,1.42
2023-05-08T13:20:08.669Z,1.50
2023-05-08T13:22:36.864Z,1.60
2023-05-08T13:25:04.058Z,1.60
2023-05-08T13:27:30.718Z,1.52
2023-05-08T13:29:57.408Z,1.73
2023-05-08T13:32:24.064Z,1.60
2023-05-08T13:34:53.024Z,1.42
2023-05-08T13:37:21.961Z,1.65
2023-05-08T13:39:50.019Z,1.67
2023-05-08T13:42:16.612Z,1.50
2023-05-08T13:44:43.277Z,1.80
2023-05-08T13:47:10.224Z,1.73
2023-05-08T13:49:36.804Z,2.10
2023-05-08T13:52:03.818Z,1.23
2023-05-08T13:54:30.468Z,1.30
2023-05-08T13:56:58.611Z,1.52
2023-05-08T13:59:25.389Z,1.40
2023-05-08T14:01:52.129Z,1.30
2023-05-08T14:04:18.772Z,1.88
2023-05-08T14:06:45.491Z,1.35
2023-05-08T14:09:14.859Z,2.22
2023-05-08T14:11:41.642Z,1.40
2023-05-08T14:14:09.698Z,1.30
2023-05-08T14:16:36.447Z,2.00
2023-05-08T14:19:03.132Z,1.85
2023-05-08T14:21:29.762Z,1.73
2023-05-08T14:23:57.723Z,1.80
2023-05-08T14:26:24.388Z,1.40
2023-05-08T14:28:51.014Z,1.60
2023-05-08T14:31:19.095Z,1.83
2023-05-08T14:33:45.808Z,1.77
2023-05-08T14:36:12.483Z,1.58
2023-05-08T14:38:39.064Z,1.60
2023-05-08T14:41:06.038Z,1.50
2023-05-08T14:43:32.650Z,1.52
2023-05-08T14:45:59.306Z,1.45
2023-05-08T14:48:27.540Z,1.58
2023-05-08T14:50:54.184Z,1.50
2023-05-08T14:53:20.941Z,1.35
2023-05-08T14:55:47.962Z,1.48
2023-05-08T14:58:14.833Z,1.73
2023-05-08T15:00:41.628Z,1.90
2023-05-08T15:03:08.334Z,1.58
2023-05-08T15:05:36.562Z,1.70
2023-05-08T15:08:03.334Z,2.00
2023-05-08T15:10:29.966Z,1.80
2023-05-08T15:12:56.686Z,1.73
2023-05-08T15:15:23.526Z,1.65
2023-05-08T15:17:50.184Z,1.80
2023-05-08T15:20:16.791Z,1.48
2023-05-08T15:22:44.938Z,1.83
2023-05-08T15:25:11.997Z,1.70
2023-05-08T15:27:38.703Z,1.25
2023-05-08T15:30:06.562Z,1.30
2023-05-08T15:32:33.259Z,1.60
2023-05-08T15:34:59.845Z,1.80
2023-05-08T15:37:26.602Z,1.75
2023-05-08T15:39:54.634Z,1.85
2023-05-08T15:42:21.193Z,2.08
2023-05-08T15:47:17.368Z,1.60
2023-05-08T15:49:43.932Z,1.60
2023-05-08T15:52:10.576Z,1.70
2023-05-08T15:54:37.178Z,1.73
2023-05-08T15:57:05.258Z,1.60
2023-05-08T15:59:31.808Z,1.42
2023-05-08T16:01:58.629Z,1.90
2023-05-08T16:04:25.272Z,1.80
2023-05-08T16:06:51.866Z,1.83
2023-05-08T16:09:18.482Z,1.88
2023-05-08T16:11:45.062Z,1.75
2023-05-08T16:14:13.044Z,1.92
2023-05-08T16:16:39.755Z,1.83
2023-05-08T16:19:06.421Z,1.50
2023-05-08T16:21:33.062Z,2.00
2023-05-08T16:23:59.700Z,1.73
2023-05-08T16:26:26.341Z,1.90
2023-05-08T16:28:53.054Z,1.67
2023-05-08T16:31:21.171Z,1.77
2023-05-08T16:33:47.812Z,2.22
2023-05-08T16:36:14.420Z,1.63
2023-05-08T16:38:41.051Z,2.90
2023-05-08T16:41:07.729Z,1.63
2023-05-08T16:43:34.623Z,2.00
2023-05-08T16:46:01.367Z,1.77
2023-05-08T16:48:29.365Z,1.90
2023-05-08T16:50:56.179Z,1.77
2023-05-08T16:53:22.815Z,1.83
2023-05-08T16:55:49.407Z,2.25
2023-05-08T16:58:16.050Z,1.95
2023-05-08T17:00:42.702Z,2.05
2023-05-08T17:03:09.609Z,1.92
2023-05-08T17:05:37.866Z,2.30
2023-05-08T17:08:04.777Z,1.90
2023-05-08T17:10:31.610Z,1.98
2023-05-08T17:12:58.455Z,2.40
2023-05-08T17:15:25.146Z,1.60
2023-05-08T17:17:52.034Z,1.70
2023-05-08T17:20:18.777Z,1.80
2023-05-08T17:22:46.834Z,1.92
2023-05-08T17:25:13.529Z,2.42
2023-05-08T17:27:40.234Z,2.00
2023-05-08T17:30:08.019Z,2.53
2023-05-08T17:32:34.755Z,2.05
2023-05-08T17:35:01.427Z,2.00
2023-05-08T17:37:28.116Z,1.77
2023-05-08T17:39:56.173Z,2.35
2023-05-08T17:42:22.859Z,1.95
2023-05-08T17:44:49.509Z,1.80
2023-05-08T17:47:16.199Z,2.78
2023-05-08T17:49:42.962Z,1.83
2023-05-08T17:52:09.626Z,1.85
2023-05-08T17:54:36.319Z,2.05
2023-05-08T17:57:04.496Z,1.85
2023-05-08T17:59:31.225Z,2.60
2023-05-08T18:01:57.873Z,1.90
2023-05-08T18:04:24.596Z,1.90
2023-05-08T18:06:51.267Z,1.60
2023-05-08T18:09:18.001Z,2.35
2023-05-08T18:11:44.973Z,1.90
2023-05-08T18:14:13.042Z,2.25
2023-05-08T18:16:39.743Z,1.92
2023-05-08T18:19:06.461Z,2.00
2023-05-08T18:21:33.222Z,1.88
2023-05-08T18:24:00.053Z,1.83
2023-05-08T18:26:26.989Z,1.50
2023-05-08T18:28:53.658Z,2.20
2023-05-08T18:31:21.983Z,2.08
2023-05-08T18:33:48.626Z,1.80
2023-05-08T18:36:15.336Z,1.90
2023-05-08T18:38:42.020Z,2.03
2023-05-08T18:41:08.698Z,2.03
2023-05-08T18:43:35.643Z,1.92
2023-05-08T18:46:08.359Z,2.72
2023-05-08T18:48:36.434Z,2.08
2023-05-08T18:51:03.222Z,1.80
2023-05-08T18:53:29.917Z,1.88
2023-05-08T18:55:56.524Z,1.85
2023-05-08T18:58:23.255Z,1.92
2023-05-08T19:00:50.040Z,2.25
2023-05-08T19:03:16.803Z,1.95
2023-05-08T19:05:45.348Z,2.10
2023-05-08T19:08:11.983Z,1.85
2023-05-08T19:10:38.895Z,2.67
2023-05-08T19:13:05.742Z,1.88
2023-05-08T19:15:32.486Z,1.75
2023-05-08T19:17:59.203Z,1.90
2023-05-08T19:20:26.099Z,1.83
2023-05-08T19:22:54.478Z,1.60
2023-05-08T19:25:21.549Z,2.10
2023-05-08T19:27:48.320Z,1.92
2023-05-08T19:30:15.377Z,1.90
2023-05-08T19:32:42.320Z,2.25
2023-05-08T19:35:09.278Z,2.03
2023-05-08T19:37:36.032Z,1.90
2023-05-08T19:40:04.761Z,1.70
2023-05-08T19:42:31.514Z,2.30
2023-05-08T19:44:58.212Z,2.38
2023-05-08T19:47:24.924Z,2.00
2023-05-08T19:49:51.669Z,2.63
2023-05-08T19:52:18.457Z,2.28
2023-05-08T19:54:45.355Z,2.30
2023-05-08T19:57:13.477Z,2.28
2023-05-08T19:59:40.217Z,2.70
2023-05-08T20:02:07.183Z,2.25
2023-05-08T20:04:40.018Z,2.10
2023-05-08T20:07:18.741Z,2.38
2023-05-08T20:09:45.357Z,2.70
2023-05-08T20:12:13.404Z,2.67
2023-05-08T20:14:40.051Z,2.90
2023-05-08T20:17:06.844Z,2.47
2023-05-08T20:19:33.586Z,2.60
2023-05-08T20:22:00.204Z,2.60
2023-05-08T20:24:26.864Z,2.20
2023-05-08T20:26:53.859Z,2.33
2023-05-08T20:29:22.759Z,2.30
2023-05-08T20:31:49.436Z,2.40
2023-05-08T20:34:16.251Z,2.33
2023-05-08T20:36:43.196Z,2.58
2023-05-08T20:39:09.864Z,2.80
2023-05-08T20:41:36.647Z,2.30
2023-05-08T20:44:03.268Z,2.60
2023-05-08T20:46:31.358Z,2.65
2023-05-08T20:48:57.971Z,2.30
2023-05-08T20:51:24.818Z,2.75
2023-05-08T20:53:51.569Z,2.40
2023-05-08T20:56:19.123Z,2.35
2023-05-08T20:58:45.960Z,2.70
2023-05-08T21:01:12.689Z,2.35
2023-05-08T21:03:40.679Z,2.75
2023-05-08T21:06:07.582Z,2.60
2023-05-08T21:08:34.242Z,2.67
2023-05-08T21:11:01.479Z,2.70
2023-05-08T21:13:28.267Z,2.80
2023-05-08T21:15:54.927Z,2.80
2023-05-08T21:18:21.541Z,2.67
2023-05-08T21:20:49.629Z,2.90
2023-05-08T21:23:16.701Z,2.83
2023-05-08T21:25:45.735Z,3.30
2023-05-08T21:28:12.497Z,2.58
2023-05-08T21:30:39.144Z,2.65
2023-05-08T21:33:05.792Z,2.97
2023-05-08T21:35:32.502Z,2.65
2023-05-08T21:38:00.502Z,2.97
2023-05-08T21:40:27.232Z,2.97
2023-05-08T21:42:53.845Z,2.80
2023-05-08T21:45:20.592Z,3.28
2023-05-08T21:47:47.266Z,2.88
2023-05-08T21:50:13.904Z,2.65
2023-05-08T21:52:40.536Z,2.95
2023-05-08T21:55:09.490Z,3.00
2023-05-08T21:57:36.232Z,3.40
2023-05-08T22:00:03.899Z,3.05
2023-05-08T22:02:30.706Z,3.03
2023-05-08T22:04:57.421Z,3.10
2023-05-08T22:07:24.060Z,3.30
2023-05-08T22:09:50.670Z,3.35
2023-05-08T22:12:18.929Z,3.30
2023-05-08T22:14:45.518Z,3.20
2023-05-08T22:17:12.205Z,3.10
2023-05-08T22:19:38.985Z,3.42
2023-05-08T22:22:05.780Z,3.25
2023-05-08T22:24:32.642Z,3.22
2023-05-08T22:26:59.323Z,3.17
2023-05-08T22:29:27.390Z,3.17
2023-05-08T22:31:54.020Z,3.35
2023-05-08T22:34:20.742Z,3.42
2023-05-08T22:36:47.450Z,3.45
2023-05-08T22:39:14.072Z,3.00
2023-05-08T22:41:40.728Z,3.75
2023-05-08T22:44:07.675Z,3.65
2023-05-08T22:46:36.174Z,3.63
2023-05-08T22:49:02.922Z,3.38
2023-05-08T22:51:30.117Z,3.08
2023-05-08T22:53:56.785Z,3.60
2023-05-08T22:56:23.440Z,3.88
2023-05-08T22:58:50.068Z,2.97
2023-05-08T23:01:16.739Z,3.38
2023-05-08T23:03:44.784Z,3.08
2023-05-08T23:06:11.550Z,3.50
2023-05-08T23:08:38.285Z,3.58
2023-05-08T23:11:05.009Z,3.45
2023-05-08T23:13:31.958Z,3.42
2023-05-08T23:15:58.590Z,3.60
2023-05-08T23:18:25.311Z,3.00
2023-05-08T23:20:53.341Z,3.65
2023-05-08T23:23:20.010Z,3.35
2023-05-08T23:25:46.687Z,3.53
2023-05-08T23:28:13.350Z,3.65
2023-05-08T23:30:39.925Z,3.47
2023-05-08T23:33:06.898Z,3.33
2023-05-08T23:35:33.550Z,3.63
2023-05-08T23:38:01.717Z,3.65
2023-05-08T23:40:28.470Z,3.30
2023-05-08T23:42:55.097Z,3.50
2023-05-08T23:45:21.661Z,3.15
2023-05-08T23:47:48.359Z,3.40
2023-05-08T23:50:15.340Z,3.90
2023-05-08T23:52:41.977Z,3.78
2023-05-08T23:55:10.715Z,3.55
2023-05-08T23:57:37.462Z,3.72
